US-0744 weather

Public forecast

Using degrees Fahrenheit for public forecast. Weather courtesy of forecast.io.

Closest aviation weather report (METAR) to Fort Kent Municipal Airport

Closest report is Northern Aroostook Regional Airport, 11.9 nm (22.0 km) ENE. Retrieved 2020/08/12 00:43 UTC (4 minutes ago):

KFVE 120043Z AUTO 23010G19KT 200V270 10SM TS BKN070 BKN085 28/17 A2984 RMK AO2 LTG DSNT SW-NW TSB43 PRESRR T02780167

Closest aviation forecast (TAF) to Fort Kent Municipal Airport

Closest forecast is Northern Aroostook Regional Airport, 11.9 nm (22.0 km) ENE. Retrieved 2020-08-12 00:30 UTC (17 minutes ago):

TAF KFVE 112329Z 1200/1224 19005KT P6SM VCTS SCT030CB BKN050 TEMPO 1201/1204 VRB15G30KT 3SM TSRAGS OVC025CB FM120500 19004KT 6SM -SHRA OVC035 FM120900 20004KT 5SM SHRA BR OVC015 FM121100 22005KT 2SM SHRA BR OVC005 FM121300 25006KT P6SM VCSH BKN015 FM121600 27007KT P6SM BKN028 FM121800 27007KT P6SM VCSH BKN040 FM122200 28005KT P6SM SCT060